createdAt,value
2022-08-02T00:00:39.460Z,70.9
2022-08-02T00:03:07.692Z,71.1
2022-08-02T00:05:35.935Z,71.3
2022-08-02T00:08:04.249Z,71.6
2022-08-02T00:10:32.496Z,71.7
2022-08-02T00:13:00.759Z,71.7
2022-08-02T00:15:28.979Z,72.2
2022-08-02T00:17:57.230Z,72.4
2022-08-02T00:20:25.550Z,72.6
2022-08-02T00:21:42.199Z,72.8
2022-08-02T00:22:53.802Z,73.1
2022-08-02T00:25:22.072Z,73.2
2022-08-02T00:27:50.292Z,73.4
2022-08-02T00:30:18.549Z,73.5
2022-08-02T00:32:46.802Z,73.8
2022-08-02T00:35:15.040Z,73.4
2022-08-02T00:37:43.363Z,73.9
2022-08-02T00:40:11.586Z,73.9
2022-08-02T00:45:08.131Z,73.8
2022-08-02T00:46:24.734Z,73.3
2022-08-02T00:47:36.350Z,73.1
2022-08-02T00:50:04.607Z,72.9
2022-08-02T00:52:32.896Z,72.8
2022-08-02T00:55:01.131Z,72.8
2022-08-02T00:59:57.633Z,73.1
2022-08-02T01:02:25.940Z,73.3
2022-08-02T01:04:54.210Z,73.6
2022-08-02T01:07:22.402Z,73.7
2022-08-02T01:09:50.717Z,73.6
2022-08-02T01:11:07.388Z,73.6
2022-08-02T01:12:18.954Z,73.3
2022-08-02T01:14:47.218Z,73.1
2022-08-02T01:19:43.761Z,73.3
2022-08-02T01:22:11.995Z,73.6
2022-08-02T01:24:40.252Z,73.6
2022-08-02T01:27:08.542Z,73.6
2022-08-02T01:29:36.776Z,73.8
2022-08-02T01:32:05.036Z,73.8
2022-08-02T01:34:33.298Z,74
2022-08-02T01:37:01.576Z,74.1
2022-08-02T01:39:29.811Z,74.2
2022-08-02T01:41:58.068Z,74.5
2022-08-02T01:44:26.300Z,74.4
2022-08-02T01:46:54.601Z,74.4
2022-08-02T01:49:22.877Z,74.8
2022-08-02T01:51:51.071Z,75.1
2022-08-02T01:56:47.613Z,75.1
2022-08-02T01:59:15.867Z,75.1
2022-08-02T02:00:32.518Z,75.3
2022-08-02T02:01:44.106Z,75.5
2022-08-02T02:04:12.422Z,75.7
2022-08-02T02:06:40.642Z,75.7
2022-08-02T02:11:37.186Z,75.6
2022-08-02T02:14:05.456Z,75.3
2022-08-02T02:19:01.937Z,75.3
2022-08-02T02:21:30.183Z,75.5
2022-08-02T02:23:58.466Z,75.5
2022-08-02T02:25:15.164Z,75.7
2022-08-02T02:26:26.702Z,75.8
2022-08-02T02:28:54.988Z,75.7
2022-08-02T02:33:51.522Z,75.7
2022-08-02T02:36:19.732Z,75.9
2022-08-02T02:38:48.040Z,76
2022-08-02T02:41:16.263Z,76.2
2022-08-02T02:43:44.548Z,76.2
2022-08-02T02:48:41.011Z,76
2022-08-02T02:49:57.730Z,76.2
2022-08-02T02:51:09.313Z,76.3
2022-08-02T02:53:37.558Z,76.4
2022-08-02T02:56:05.832Z,76.4
2022-08-02T02:58:34.137Z,76.5
2022-08-02T03:03:30.645Z,76.7
2022-08-02T03:05:58.892Z,77.3
2022-08-02T03:10:55.385Z,77.5
2022-08-02T03:13:23.649Z,77.6
2022-08-02T03:14:40.278Z,77.8
2022-08-02T03:15:51.935Z,77.7
2022-08-02T03:18:20.172Z,77.8
2022-08-02T03:20:48.432Z,78
2022-08-02T03:23:16.680Z,78
2022-08-02T03:25:44.915Z,77.8
2022-08-02T03:28:13.178Z,77.6
2022-08-02T03:30:41.453Z,77.5
2022-08-02T03:33:09.750Z,77.8
2022-08-02T03:35:37.944Z,77.8
2022-08-02T03:38:06.230Z,78
2022-08-02T03:40:34.527Z,78.2
2022-08-02T03:43:02.768Z,78.2
2022-08-02T03:47:59.255Z,78.2
2022-08-02T03:50:27.497Z,78.3
2022-08-02T03:52:55.780Z,78.2
2022-08-02T03:55:24.009Z,78.3
2022-08-02T03:57:52.288Z,78.4
2022-08-02T04:00:20.572Z,78.6
2022-08-02T04:02:48.816Z,78.6
2022-08-02T04:04:05.508Z,78.4
2022-08-02T04:05:17.054Z,78.6
2022-08-02T04:07:45.346Z,78.7
2022-08-02T04:10:13.567Z,78.8
2022-08-02T04:12:41.854Z,79
2022-08-02T04:15:10.100Z,79.1
2022-08-02T04:17:38.338Z,79.1
2022-08-02T04:20:06.626Z,79.3
2022-08-02T04:22:34.863Z,79.3
2022-08-02T04:27:31.401Z,79.5
2022-08-02T04:28:48.037Z,79.8
2022-08-02T04:29:59.705Z,80.1
2022-08-02T04:32:27.922Z,80.3
2022-08-02T04:34:56.169Z,80.6
2022-08-02T04:37:24.459Z,80.9
2022-08-02T04:39:52.689Z,81.3
2022-08-02T04:42:20.983Z,81.5
2022-08-02T04:44:49.236Z,81.5
2022-08-02T04:49:45.736Z,81.7
2022-08-02T04:53:30.658Z,81.5
2022-08-02T04:54:42.450Z,81.7
2022-08-02T04:57:10.666Z,81.5
2022-08-02T04:59:38.939Z,81.8
2022-08-02T05:02:07.192Z,81.7
2022-08-02T05:04:35.426Z,81.7
2022-08-02T05:09:31.997Z,81.8
2022-08-02T05:12:00.244Z,82
2022-08-02T05:14:28.489Z,81.9
2022-08-02T05:16:56.735Z,82
2022-08-02T05:18:13.236Z,81.8
2022-08-02T05:19:25.010Z,81.6
2022-08-02T05:21:53.284Z,81.7
2022-08-02T05:31:46.254Z,81.5
2022-08-02T05:34:14.541Z,81.3
2022-08-02T05:36:42.806Z,81.4
2022-08-02T05:39:11.081Z,81.3
2022-08-02T05:41:39.314Z,81.1
2022-08-02T05:46:35.818Z,81.2
2022-08-02T05:54:00.603Z,80.9
2022-08-02T05:56:28.861Z,80.5
2022-08-02T06:01:25.387Z,80.3
2022-08-02T06:03:53.635Z,79.5
2022-08-02T06:06:21.884Z,79.8
2022-08-02T06:07:38.408Z,79.8
2022-08-02T06:08:50.174Z,80.1
2022-08-02T06:11:18.401Z,80.2
2022-08-02T06:16:14.937Z,80.4
2022-08-02T06:18:43.175Z,80.4
2022-08-02T06:21:11.440Z,80
2022-08-02T06:26:07.922Z,79.7
2022-08-02T06:28:36.252Z,79.9
2022-08-02T06:31:04.481Z,79.3
2022-08-02T06:32:21.017Z,79
2022-08-02T06:33:32.699Z,78.8
2022-08-02T06:40:57.468Z,77.6
2022-08-02T06:43:25.733Z,77.6
2022-08-02T06:48:22.251Z,77.7
2022-08-02T06:50:50.527Z,77.7
2022-08-02T06:53:18.781Z,77.9
2022-08-02T06:55:47.038Z,78
2022-08-02T06:57:03.616Z,77.9
2022-08-02T07:00:43.565Z,77.9
2022-08-02T07:03:11.826Z,77.5
2022-08-02T07:05:40.087Z,77.4
2022-08-02T07:08:08.321Z,77.3
2022-08-02T07:10:36.621Z,77.2
2022-08-02T07:13:04.815Z,77.1
2022-08-02T07:15:33.072Z,76.9
2022-08-02T07:18:01.341Z,76.7
2022-08-02T07:20:29.642Z,76.8
2022-08-02T07:21:46.217Z,76
2022-08-02T07:22:57.882Z,76
2022-08-02T07:25:26.128Z,75.5
2022-08-02T07:27:54.395Z,75.5
2022-08-02T07:30:22.619Z,75.6
2022-08-02T07:32:50.929Z,75.5
2022-08-02T07:35:19.210Z,75.2
2022-08-02T07:37:47.426Z,74.3
2022-08-02T07:40:15.661Z,73
2022-08-02T07:42:43.930Z,72.9
2022-08-02T07:47:40.431Z,73.3
2022-08-02T07:52:36.956Z,73.1
2022-08-02T07:55:05.257Z,73
2022-08-02T08:00:01.775Z,72.2
2022-08-02T08:02:30.024Z,71.5
2022-08-02T08:07:26.547Z,71.1
2022-08-02T08:09:54.783Z,71.1
2022-08-02T08:11:11.402Z,71.6
2022-08-02T08:12:23.011Z,71.4
2022-08-02T08:14:51.323Z,71.2
2022-08-02T08:17:19.518Z,70.5
2022-08-02T08:19:47.782Z,70.7
2022-08-02T08:22:16.072Z,70.3
2022-08-02T08:24:44.299Z,70
2022-08-02T08:29:40.839Z,67.9
2022-08-02T08:32:09.075Z,68.9
2022-08-02T08:34:37.392Z,68.7
2022-08-02T08:35:53.952Z,67.8
2022-08-02T08:39:33.877Z,67.8
2022-08-02T08:46:58.673Z,66.8
2022-08-02T08:51:55.206Z,66.2
2022-08-02T08:59:19.912Z,65.2
2022-08-02T09:00:36.580Z,64.6
2022-08-02T09:01:48.225Z,63.8
2022-08-02T09:04:16.450Z,64
2022-08-02T09:06:44.760Z,63.9
2022-08-02T09:09:12.962Z,62.5
2022-08-02T09:11:41.239Z,63
2022-08-02T09:16:37.739Z,61.4
2022-08-02T09:19:06.036Z,61
2022-08-02T09:21:34.261Z,61
2022-08-02T09:24:02.531Z,60.5
2022-08-02T09:25:19.159Z,60.4
2022-08-02T09:26:30.794Z,60.7
2022-08-02T09:28:59.044Z,59.7
2022-08-02T09:31:27.289Z,58.9
2022-08-02T09:33:55.565Z,59.5
2022-08-02T09:36:23.831Z,58.5
2022-08-02T09:41:20.316Z,57.1
2022-08-02T09:43:48.575Z,57.4
2022-08-02T09:46:16.900Z,56
2022-08-02T09:48:45.131Z,55.6
2022-08-02T09:51:13.383Z,55.5
2022-08-02T09:53:41.653Z,54.9
2022-08-02T09:58:38.207Z,53.3
2022-08-02T10:01:06.395Z,51.6
2022-08-02T10:03:34.662Z,50.8
2022-08-02T10:13:27.686Z,48.1
2022-08-02T10:14:44.339Z,48.4
2022-08-02T10:23:20.755Z,48.1
2022-08-02T10:25:49.003Z,47.6
2022-08-02T10:33:13.791Z,45.5
2022-08-02T10:38:10.286Z,46.5
2022-08-02T10:39:26.978Z,45.7
2022-08-02T10:43:06.827Z,46.9
2022-08-02T10:45:35.087Z,47.3
2022-08-02T10:48:03.339Z,45.9
2022-08-02T10:52:59.825Z,42.9
2022-08-02T11:00:24.579Z,37.6
2022-08-02T11:02:52.856Z,37.2
2022-08-02T11:04:09.580Z,36.2
2022-08-02T11:07:49.404Z,35.9
2022-08-02T11:10:17.617Z,36.6
2022-08-02T11:15:14.134Z,35.1
2022-08-02T11:20:10.717Z,34.4
2022-08-02T11:22:38.956Z,34.2
2022-08-02T11:25:07.213Z,34.4
2022-08-02T11:27:35.433Z,33.6
2022-08-02T11:28:52.126Z,34
2022-08-02T11:30:03.776Z,33.4
2022-08-02T11:32:31.962Z,33.8
2022-08-02T11:35:00.242Z,33.9
2022-08-02T11:37:28.512Z,33.9
2022-08-02T11:39:56.737Z,35.9
2022-08-02T11:42:25.049Z,37.2
2022-08-02T11:44:53.312Z,36.9
2022-08-02T11:47:21.540Z,36
2022-08-02T11:49:49.763Z,35.5
2022-08-02T11:52:18.022Z,35.8
2022-08-02T11:54:46.290Z,35.1
2022-08-02T11:57:14.603Z,35.4
2022-08-02T12:07:07.649Z,37
2022-08-02T12:09:35.898Z,36.4
2022-08-02T12:12:04.169Z,37.1
2022-08-02T12:14:32.368Z,37.8
2022-08-02T12:17:00.677Z,38.9
2022-08-02T12:18:17.286Z,38.3
2022-08-02T12:19:28.955Z,37.5
2022-08-02T12:21:57.148Z,37.5
2022-08-02T12:24:25.465Z,38.6
2022-08-02T12:29:21.929Z,38.9
2022-08-02T12:34:18.481Z,41.3
2022-08-02T12:39:14.955Z,41.5
2022-08-02T12:41:43.253Z,42.5
2022-08-02T12:42:59.928Z,43.5
2022-08-02T12:44:11.500Z,44
2022-08-02T12:46:39.757Z,44.2
2022-08-02T12:49:08.046Z,44.7
2022-08-02T12:51:36.282Z,44.4
2022-08-02T12:56:32.780Z,41.5
2022-08-02T12:59:01.091Z,41.5
2022-08-02T13:03:57.559Z,40.5
2022-08-02T13:07:42.514Z,42
2022-08-02T13:11:22.335Z,41.1
2022-08-02T13:13:50.590Z,41.3
2022-08-02T13:16:18.827Z,41
2022-08-02T13:18:47.106Z,41.3
2022-08-02T13:21:15.385Z,42.2
2022-08-02T13:26:11.922Z,42.1
2022-08-02T13:28:40.164Z,41.5
2022-08-02T13:32:25.074Z,42.1
2022-08-02T13:33:36.663Z,41.2
2022-08-02T13:36:04.969Z,40.6
2022-08-02T13:38:33.206Z,40.9
2022-08-02T13:41:01.428Z,41
2022-08-02T13:43:29.681Z,41.6
2022-08-02T13:48:26.212Z,41.5
2022-08-02T13:53:22.757Z,42.6
2022-08-02T13:55:51.020Z,41.2
2022-08-02T13:58:19.279Z,41
2022-08-02T14:03:15.825Z,40.9
2022-08-02T14:05:44.024Z,41.1
2022-08-02T14:15:37.077Z,42.3
2022-08-02T14:18:05.334Z,40.9
2022-08-02T14:21:50.261Z,41.1
2022-08-02T14:35:23.154Z,43.2
2022-08-02T14:40:19.659Z,41.8
2022-08-02T14:46:32.871Z,42.6
2022-08-02T14:50:12.717Z,42.3
2022-08-02T14:55:09.196Z,42.2
2022-08-02T14:57:37.458Z,42.4
2022-08-02T15:05:02.260Z,42.2
2022-08-02T15:07:30.458Z,42.5
2022-08-02T15:11:15.448Z,43.8
2022-08-02T15:12:27.046Z,43.3
2022-08-02T15:19:51.783Z,41.7
2022-08-02T15:22:20.085Z,41.6
2022-08-02T15:24:48.343Z,42.3
2022-08-02T15:34:41.316Z,41.7
2022-08-02T15:35:58.010Z,41.5
2022-08-02T15:39:37.899Z,42
2022-08-02T15:42:06.142Z,42.7
2022-08-02T15:44:34.367Z,43.2
2022-08-02T15:47:02.610Z,42.9
2022-08-02T15:49:30.863Z,43.5
2022-08-02T15:54:27.406Z,44
2022-08-02T15:56:55.673Z,43.5
2022-08-02T15:59:23.953Z,44.4
2022-08-02T16:04:20.427Z,42.6
2022-08-02T16:06:48.726Z,42.8
2022-08-02T16:09:16.931Z,43.2
2022-08-02T16:11:45.212Z,43.3
2022-08-02T16:16:41.728Z,43.6
2022-08-02T16:19:09.998Z,43.2
2022-08-02T16:24:06.470Z,43.5
2022-08-02T16:25:23.221Z,43.9
2022-08-02T16:26:34.748Z,44.2
2022-08-02T16:29:03.028Z,44.6
2022-08-02T16:33:59.531Z,44.2
2022-08-02T16:38:56.091Z,44.4
2022-08-02T16:41:24.319Z,44
2022-08-02T16:43:52.588Z,44.3
2022-08-02T16:46:20.853Z,44.8
2022-08-02T16:48:49.054Z,44.5
2022-08-02T16:50:05.794Z,44.3
2022-08-02T16:53:45.643Z,44.6
2022-08-02T16:56:13.872Z,44.4
2022-08-02T16:58:42.172Z,44.6
2022-08-02T17:01:10.404Z,44.1
2022-08-02T17:03:38.615Z,44.1
2022-08-02T17:11:03.421Z,45
2022-08-02T17:13:31.640Z,44.8
2022-08-02T17:14:48.327Z,44.4
2022-08-02T17:15:59.956Z,44.6
2022-08-02T17:18:28.173Z,45
2022-08-02T17:23:24.735Z,45.4
2022-08-02T17:25:52.986Z,45.1
2022-08-02T17:30:49.486Z,45.3
2022-08-02T17:33:17.783Z,45.6
2022-08-02T17:38:14.280Z,45.7
2022-08-02T17:39:30.908Z,45.7
2022-08-02T17:40:42.556Z,45.7
2022-08-02T17:45:39.079Z,45.7
2022-08-02T17:48:07.284Z,45.8
2022-08-02T17:50:35.589Z,46.1
2022-08-02T17:53:03.828Z,46.8
2022-08-02T17:55:32.054Z,46.4
2022-08-02T17:58:00.368Z,46.3
2022-08-02T18:00:28.559Z,46.4
2022-08-02T18:02:56.814Z,46.7
2022-08-02T18:05:25.143Z,46.7
2022-08-02T18:07:53.353Z,47
2022-08-02T18:10:21.603Z,46.9
2022-08-02T18:12:49.875Z,47.1
2022-08-02T18:15:18.175Z,47.1
2022-08-02T18:17:46.411Z,47.1
2022-08-02T18:20:14.659Z,47.3
2022-08-02T18:28:56.123Z,48
2022-08-02T18:30:07.694Z,48.2
2022-08-02T18:32:35.978Z,48.2
2022-08-02T18:37:32.451Z,48.4
2022-08-02T18:40:00.728Z,48.5
2022-08-02T18:42:28.993Z,48.6
2022-08-02T18:44:57.222Z,48.7
2022-08-02T18:49:53.746Z,48.9
2022-08-02T18:52:22.057Z,49
2022-08-02T18:53:38.662Z,49
2022-08-02T18:54:50.317Z,49.2
2022-08-02T18:59:46.816Z,49.1
2022-08-02T19:02:15.099Z,49.1
2022-08-02T19:04:43.319Z,49.3
2022-08-02T19:07:11.588Z,49.5
2022-08-02T19:09:39.831Z,49.5
2022-08-02T19:12:08.109Z,49.7
2022-08-02T19:14:36.361Z,49.8
2022-08-02T19:17:04.601Z,49.9
2022-08-02T19:18:21.283Z,50
2022-08-02T19:19:32.869Z,50
2022-08-02T19:22:01.182Z,50
2022-08-02T19:26:57.644Z,52.3
2022-08-02T19:29:25.933Z,54.9
2022-08-02T19:31:54.178Z,52.2
2022-08-02T19:34:22.455Z,52.5
2022-08-02T19:36:50.694Z,53.3
2022-08-02T19:41:47.239Z,53.3
2022-08-02T19:44:15.461Z,54
2022-08-02T19:46:43.766Z,54.1
2022-08-02T19:51:40.248Z,55
2022-08-02T19:54:08.557Z,55.2
2022-08-02T20:01:33.305Z,55.5
2022-08-02T20:04:01.522Z,56.1
2022-08-02T20:06:29.811Z,55.8
2022-08-02T20:08:58.061Z,55.8
2022-08-02T20:11:26.304Z,56.3
2022-08-02T20:21:19.369Z,56.3
2022-08-02T20:23:47.629Z,56.4
2022-08-02T20:26:15.859Z,56.4
2022-08-02T20:31:12.391Z,56.7
2022-08-02T20:32:29.101Z,56.1
2022-08-02T20:36:08.958Z,56.7
2022-08-02T20:38:37.162Z,56.8
2022-08-02T20:41:05.486Z,56.5
2022-08-02T20:43:33.721Z,57
2022-08-02T20:46:01.967Z,56.6
2022-08-02T20:48:30.217Z,57.2
2022-08-02T20:53:26.739Z,57.6
2022-08-02T20:55:55.023Z,57.6
2022-08-02T20:57:11.684Z,57.5
2022-08-02T20:58:23.306Z,57.5
2022-08-02T21:00:51.557Z,57.6
2022-08-02T21:03:19.782Z,57.9
2022-08-02T21:05:48.062Z,57.9
2022-08-02T21:08:16.328Z,58.2
2022-08-02T21:10:44.581Z,58.2
2022-08-02T21:13:12.809Z,58.3
2022-08-02T21:15:41.067Z,58.5
2022-08-02T21:18:09.339Z,58.8
2022-08-02T21:21:54.238Z,59.1
2022-08-02T21:23:05.881Z,59.2
2022-08-02T21:25:34.166Z,59.2
2022-08-02T21:28:02.360Z,58.9
2022-08-02T21:35:27.133Z,59.4
2022-08-02T21:37:55.449Z,59.8
2022-08-02T21:42:51.919Z,59.8
2022-08-02T21:45:20.166Z,60.1
2022-08-02T21:46:36.906Z,59.4
2022-08-02T21:47:48.468Z,60.1
2022-08-02T21:50:16.732Z,59.9
2022-08-02T21:55:13.261Z,60
2022-08-02T22:00:09.782Z,60.5
2022-08-02T22:05:06.276Z,61
2022-08-02T22:07:34.550Z,61
2022-08-02T22:10:02.812Z,60.9
2022-08-02T22:12:31.093Z,61.1
2022-08-02T22:14:59.376Z,61.4
2022-08-02T22:17:27.594Z,61.2
2022-08-02T22:22:24.107Z,61.5
2022-08-02T22:27:20.616Z,61.4
2022-08-02T22:29:48.865Z,61.6
2022-08-02T22:32:17.174Z,61.8
2022-08-02T22:34:45.429Z,61.5
2022-08-02T22:36:02.079Z,62.2
2022-08-02T22:37:13.641Z,62.3
2022-08-02T22:39:41.905Z,61.8
2022-08-02T22:42:10.189Z,62.4
2022-08-02T22:44:38.481Z,62.6
2022-08-02T22:47:06.709Z,62.6
2022-08-02T22:49:34.974Z,62.8
2022-08-02T22:52:03.194Z,62.7
2022-08-02T22:54:31.441Z,62.6
2022-08-02T22:59:28.013Z,63
2022-08-02T23:00:44.681Z,62.8
2022-08-02T23:06:52.804Z,63.5
2022-08-02T23:11:49.310Z,63.7
2022-08-02T23:14:17.537Z,63.7
2022-08-02T23:19:14.079Z,64.4
2022-08-02T23:21:42.343Z,64.5
2022-08-02T23:25:27.231Z,64.6
2022-08-02T23:31:35.427Z,64.6
2022-08-02T23:34:03.606Z,64.3
2022-08-02T23:36:31.929Z,64.6
2022-08-02T23:41:28.410Z,65.1
2022-08-02T23:43:56.686Z,64.9
2022-08-02T23:46:24.923Z,65
2022-08-02T23:50:09.863Z,65.2
2022-08-02T23:51:21.478Z,65
2022-08-02T23:56:17.950Z,65
